Time;durP1;ratioP1;P1;durP2;ratioP2;P2;SDS_P1;SDS_P2;PMS_P1;PMS_P2;Temp;Humidity;BMP_temperature;BMP_pressure;BME280_temperature;BME280_humidity;BME280_pressure;Samples;Min_cycle;Max_cycle;Signal;HPM_P1;HPM_P2
2022/02/27 00:01:43;;;;;;;3.97;3.67;;;;;;;;;;4835956;29;20061;-81
2022/02/27 00:04:11;;;;;;;8.00;3.42;;;;;;;;;;4837491;29;20068;-80
2022/02/27 00:06:40;;;;;;;11.45;3.50;;;;;;;;;;4854256;29;20045;-81
2022/02/27 00:09:09;;;;;;;6.60;3.83;;;;;;;;;;4851066;29;20056;-81
2022/02/27 00:11:38;;;;;;;2.72;2.53;;;;;;;;;;4852440;29;20057;-80
2022/02/27 00:14:06;;;;;;;7.40;2.97;;;;;;;;;;4853487;29;20049;-80
2022/02/27 00:16:34;;;;;;;8.15;2.75;;;;;;;;;;4849911;29;20455;-83
2022/02/27 00:19:02;;;;;;;4.60;3.00;;;;;;;;;;4849948;29;20054;-81
2022/02/27 00:21:32;;;;;;;4.30;4.00;;;;;;;;;;4849969;29;20049;-81
2022/02/27 00:24:00;;;;;;;3.30;3.10;;;;;;;;;;4821607;29;20057;-79
2022/02/27 00:26:28;;;;;;;6.07;3.10;;;;;;;;;;4851854;29;20049;-82
2022/02/27 00:28:57;;;;;;;6.85;4.47;;;;;;;;;;4871147;24;20116;-82
2022/02/27 00:31:25;;;;;;;3.47;3.17;;;;;;;;;;4846733;29;20054;-79
2022/02/27 00:33:53;;;;;;;12.00;4.28;;;;;;;;;;4829058;29;20698;-79
2022/02/27 00:36:21;;;;;;;1.90;1.75;;;;;;;;;;4846162;29;20049;-79
2022/02/27 00:38:49;;;;;;;4.72;3.47;;;;;;;;;;4829811;29;20053;-79
2022/02/27 00:41:20;;;;;;;4.25;2.75;;;;;;;;;;4828562;29;20076;-79
2022/02/27 00:43:48;;;;;;;3.75;3.40;;;;;;;;;;4826536;29;20048;-76
2022/02/27 00:46:16;;;;;;;6.35;4.55;;;;;;;;;;4831513;29;20052;-81
2022/02/27 00:48:45;;;;;;;7.32;4.40;;;;;;;;;;4827743;29;20057;-78
2022/02/27 00:51:14;;;;;;;6.13;3.33;;;;;;;;;;4813848;29;20049;-76
2022/02/27 00:53:43;;;;;;;17.33;3.78;;;;;;;;;;4829803;29;20045;-78
2022/02/27 00:56:11;;;;;;;2.92;2.63;;;;;;;;;;4814496;29;20049;-77
2022/02/27 00:58:42;;;;;;;7.57;4.55;;;;;;;;;;4814308;29;20053;-80
2022/02/27 01:01:10;;;;;;;3.15;2.40;;;;;;;;;;4813729;29;20060;-78
2022/02/27 01:03:38;;;;;;;6.88;4.13;;;;;;;;;;4826638;29;20058;-78
2022/02/27 01:06:06;;;;;;;6.35;3.92;;;;;;;;;;4843887;29;20404;-84
2022/02/27 01:08:34;;;;;;;7.20;3.55;;;;;;;;;;4846400;29;20057;-84
2022/02/27 01:11:02;;;;;;;3.47;3.22;;;;;;;;;;4845564;29;21345;-83
2022/02/27 01:13:30;;;;;;;13.85;2.63;;;;;;;;;;4843418;29;20037;-81
2022/02/27 01:15:58;;;;;;;2.53;2.42;;;;;;;;;;4826958;29;20057;-80
2022/02/27 01:18:26;;;;;;;7.80;2.67;;;;;;;;;;4825827;29;20488;-83
2022/02/27 01:20:54;;;;;;;6.13;4.90;;;;;;;;;;4844857;29;20040;-81
2022/02/27 01:23:22;;;;;;;5.45;4.78;;;;;;;;;;4829581;29;20053;-82
2022/02/27 01:25:50;;;;;;;4.47;3.38;;;;;;;;;;4842530;29;20056;-80
2022/02/27 01:28:18;;;;;;;4.15;3.75;;;;;;;;;;4845260;29;20065;-81
2022/02/27 01:30:47;;;;;;;4.18;2.70;;;;;;;;;;4846516;29;20053;-81
2022/02/27 01:33:16;;;;;;;7.28;3.75;;;;;;;;;;4828865;29;20058;-82
2022/02/27 01:35:45;;;;;;;11.95;4.63;;;;;;;;;;4844501;29;20054;-82
2022/02/27 01:38:15;;;;;;;6.03;3.80;;;;;;;;;;4845507;29;20053;-81
2022/02/27 01:40:45;;;;;;;6.43;4.00;;;;;;;;;;4843383;29;20053;-85
2022/02/27 01:43:14;;;;;;;7.55;3.45;;;;;;;;;;4827458;29;20076;-83
2022/02/27 01:45:43;;;;;;;5.00;3.17;;;;;;;;;;4851220;29;20056;-84
2022/02/27 01:48:11;;;;;;;4.88;3.40;;;;;;;;;;4844352;29;20058;-85
2022/02/27 01:50:39;;;;;;;5.95;5.00;;;;;;;;;;4846185;29;20049;-85
2022/02/27 01:53:07;;;;;;;5.90;2.63;;;;;;;;;;4846452;29;20084;-85
2022/02/27 01:55:35;;;;;;;4.70;3.53;;;;;;;;;;4848048;29;20053;-84
2022/02/27 01:58:03;;;;;;;6.32;4.32;;;;;;;;;;4833431;29;20053;-85
2022/02/27 02:00:32;;;;;;;3.33;2.92;;;;;;;;;;4831064;29;20495;-85
2022/02/27 02:03:01;;;;;;;8.63;2.60;;;;;;;;;;4827732;29;20060;-85
2022/02/27 02:05:31;;;;;;;3.60;3.30;;;;;;;;;;4827214;29;20065;-85
2022/02/27 02:08:01;;;;;;;6.35;2.80;;;;;;;;;;4848046;29;20058;-85
2022/02/27 02:10:29;;;;;;;4.75;2.90;;;;;;;;;;4825682;29;20053;-85
2022/02/27 02:13:01;;;;;;;;;;;;;;;;;;4831810;29;20064;-89
2022/02/27 02:15:29;;;;;;;20.67;5.07;;;;;;;;;;4831299;29;19928;-86
2022/02/27 02:17:57;;;;;;;4.22;3.88;;;;;;;;;;4830400;29;20761;-85
2022/02/27 02:20:25;;;;;;;21.70;7.60;;;;;;;;;;4843907;29;20063;-85
2022/02/27 02:22:58;;;;;;;5.90;2.88;;;;;;;;;;4830618;29;20057;-85
2022/02/27 02:25:26;;;;;;;5.38;3.63;;;;;;;;;;4848302;29;20053;-85
2022/02/27 02:27:58;;;;;;;3.08;2.88;;;;;;;;;;4829817;29;20053;-86
2022/02/27 02:30:26;;;;;;;21.98;5.82;;;;;;;;;;4827991;29;20488;-86
2022/02/27 02:32:55;;;;;;;11.73;5.45;;;;;;;;;;4845097;29;20507;-86
2022/02/27 02:35:25;;;;;;;6.72;6.13;;;;;;;;;;4829777;29;20050;-86
2022/02/27 02:37:57;;;;;;;5.43;3.65;;;;;;;;;;4847406;29;20057;-85
2022/02/27 02:40:26;;;;;;;11.70;4.07;;;;;;;;;;4814878;29;20061;-86
2022/02/27 02:42:57;;;;;;;3.75;3.40;;;;;;;;;;4831220;29;20064;-86
2022/02/27 02:45:25;;;;;;;4.72;4.20;;;;;;;;;;4832335;29;20057;-85
2022/02/27 02:47:55;;;;;;;9.63;5.03;;;;;;;;;;4830739;29;20714;-85
2022/02/27 02:50:28;;;;;;;9.00;3.85;;;;;;;;;;4833019;29;20054;-86
2022/02/27 02:52:58;;;;;;;16.67;3.83;;;;;;;;;;4830378;29;20049;-86
2022/02/27 02:55:26;;;;;;;4.47;3.22;;;;;;;;;;4829641;29;20045;-86
2022/02/27 02:57:54;;;;;;;6.97;3.08;;;;;;;;;;4833191;29;20046;-85
2022/02/27 03:00:22;;;;;;;9.02;5.00;;;;;;;;;;4849029;29;20050;-86
2022/02/27 03:02:50;;;;;;;9.27;4.50;;;;;;;;;;4849758;29;20054;-86
2022/02/27 03:05:19;;;;;;;6.82;5.15;;;;;;;;;;4848734;29;20057;-86
2022/02/27 03:07:47;;;;;;;7.57;6.38;;;;;;;;;;4846360;29;20054;-86
2022/02/27 03:10:15;;;;;;;3.85;3.55;;;;;;;;;;4848944;29;20050;-86
2022/02/27 03:12:44;;;;;;;8.23;5.22;;;;;;;;;;4845683;29;20073;-87
2022/02/27 03:15:16;;;;;;;5.10;3.58;;;;;;;;;;4831368;29;20050;-86
2022/02/27 03:17:44;;;;;;;7.88;4.38;;;;;;;;;;4845727;29;20072;-85
2022/02/27 03:20:12;;;;;;;9.82;5.47;;;;;;;;;;4847987;29;20053;-86
2022/02/27 03:22:40;;;;;;;6.93;5.47;;;;;;;;;;4845891;29;20061;-85
2022/02/27 03:25:08;;;;;;;4.38;4.07;;;;;;;;;;4845087;29;20056;-86
2022/02/27 03:27:36;;;;;;;7.65;5.20;;;;;;;;;;4846571;29;20475;-86
2022/02/27 03:30:04;;;;;;;3.65;3.35;;;;;;;;;;4848437;29;20057;-85
2022/02/27 03:32:32;;;;;;;7.78;4.63;;;;;;;;;;4846596;29;20050;-86
2022/02/27 03:35:00;;;;;;;4.95;4.45;;;;;;;;;;4847486;29;20087;-86
2022/02/27 03:37:28;;;;;;;5.15;4.35;;;;;;;;;;4847738;29;20049;-86
2022/02/27 03:39:56;;;;;;;8.73;5.03;;;;;;;;;;4845656;29;20072;-86
2022/02/27 03:42:24;;;;;;;19.33;4.90;;;;;;;;;;4849612;29;20550;-86
2022/02/27 03:44:55;;;;;;;6.00;5.50;;;;;;;;;;4847004;29;20149;-86
2022/02/27 03:47:23;;;;;;;6.55;4.45;;;;;;;;;;4852644;29;20046;-87
2022/02/27 03:49:51;;;;;;;3.55;3.35;;;;;;;;;;4844908;29;20061;-86
2022/02/27 03:52:19;;;;;;;6.13;4.80;;;;;;;;;;4845309;29;20050;-87
2022/02/27 03:54:47;;;;;;;6.20;4.60;;;;;;;;;;4845796;29;20057;-86
2022/02/27 03:57:17;;;;;;;16.42;6.97;;;;;;;;;;4848352;29;20056;-87
2022/02/27 03:59:45;;;;;;;7.63;5.95;;;;;;;;;;4846736;29;20053;-87
2022/02/27 04:02:13;;;;;;;3.35;2.90;;;;;;;;;;4846339;29;20046;-87
2022/02/27 04:04:42;;;;;;;5.38;3.63;;;;;;;;;;4828720;29;20401;-87
2022/02/27 04:07:10;;;;;;;10.70;4.80;;;;;;;;;;4846026;29;20380;-87
2022/02/27 04:09:38;;;;;;;4.70;3.92;;;;;;;;;;4845086;29;20046;-87
2022/02/27 04:12:06;;;;;;;10.15;5.18;;;;;;;;;;4831203;29;20057;-87
2022/02/27 04:14:34;;;;;;;11.20;4.15;;;;;;;;;;4830539;29;20049;-87
2022/02/27 04:17:03;;;;;;;5.90;5.00;;;;;;;;;;4844197;29;20054;-87
2022/02/27 04:19:31;;;;;;;15.95;3.33;;;;;;;;;;4830206;29;20053;-87
2022/02/27 04:21:59;;;;;;;10.57;5.05;;;;;;;;;;4845781;29;20647;-87
2022/02/27 04:24:27;;;;;;;8.23;6.28;;;;;;;;;;4846538;29;20049;-87
2022/02/27 04:27:12;;;;;;;8.70;4.85;;;;;;;;;;4848274;29;20042;-86
2022/02/27 04:30:41;;;;;;;6.07;5.35;;;;;;;;;;4837896;29;20809;-87
2022/02/27 04:34:02;;;;;;;5.70;5.20;;;;;;;;;;4833482;29;20133;-87
2022/02/27 04:37:19;;;;;;;7.43;4.53;;;;;;;;;;4831243;29;20503;-88
2022/02/27 04:40:18;;;;;;;8.43;5.80;;;;;;;;;;4827904;29;20042;-86
2022/02/27 04:42:55;;;;;;;5.13;4.45;;;;;;;;;;4830709;29;20861;-86
2022/02/27 04:45:24;;;;;;;10.43;4.40;;;;;;;;;;4846402;29;20522;-85
2022/02/27 04:47:52;;;;;;;8.15;7.40;;;;;;;;;;4828682;29;20046;-86
2022/02/27 04:50:20;;;;;;;7.18;4.13;;;;;;;;;;4846485;29;20088;-86
2022/02/27 04:52:48;;;;;;;19.10;5.43;;;;;;;;;;4844331;29;20049;-86
2022/02/27 04:55:48;;;;;;;9.55;5.18;;;;;;;;;;4845305;29;20666;-87
2022/02/27 04:58:53;;;;;;;7.18;4.35;;;;;;;;;;4834992;29;20046;-86
2022/02/27 05:01:20;;;;;;;6.53;4.68;;;;;;;;;;4843945;29;20053;-86
2022/02/27 05:03:49;;;;;;;14.10;6.80;;;;;;;;;;4844341;29;20053;-86
2022/02/27 05:06:17;;;;;;;6.15;4.45;;;;;;;;;;4846083;29;20057;-86
2022/02/27 05:08:45;;;;;;;6.85;6.25;;;;;;;;;;4843857;29;20689;-86
2022/02/27 05:11:13;;;;;;;10.23;4.05;;;;;;;;;;4844089;29;20046;-86
2022/02/27 05:13:41;;;;;;;6.18;4.90;;;;;;;;;;4844302;29;20066;-86
2022/02/27 05:16:09;;;;;;;7.82;5.28;;;;;;;;;;4848880;29;20058;-85
2022/02/27 05:18:38;;;;;;;12.93;4.80;;;;;;;;;;4843905;29;20050;-85
2022/02/27 05:21:08;;;;;;;5.75;3.97;;;;;;;;;;4846145;29;20804;-85
2022/02/27 05:23:36;;;;;;;5.97;5.07;;;;;;;;;;4844954;29;20050;-86
2022/02/27 05:26:04;;;;;;;6.18;5.57;;;;;;;;;;4829917;29;20057;-86
2022/02/27 05:28:32;;;;;;;8.65;4.72;;;;;;;;;;4827308;29;20069;-86
2022/02/27 05:31:00;;;;;;;11.48;4.25;;;;;;;;;;4844947;29;20053;-86
2022/02/27 05:33:28;;;;;;;6.05;4.97;;;;;;;;;;4846080;29;20708;-87
2022/02/27 05:35:56;;;;;;;7.55;4.72;;;;;;;;;;4844600;29;20404;-86
2022/02/27 05:38:24;;;;;;;5.22;4.75;;;;;;;;;;4844129;29;20057;-85
2022/02/27 05:40:53;;;;;;;9.13;5.38;;;;;;;;;;4825779;29;20045;-86
2022/02/27 05:43:21;;;;;;;6.43;5.82;;;;;;;;;;4845153;29;20056;-87
2022/02/27 05:45:49;;;;;;;8.88;5.13;;;;;;;;;;4845954;29;20053;-86
2022/02/27 05:48:17;;;;;;;9.50;4.93;;;;;;;;;;4828791;29;20053;-87
2022/02/27 05:50:45;;;;;;;7.55;6.00;;;;;;;;;;4846417;29;20049;-86
2022/02/27 05:53:13;;;;;;;6.90;6.28;;;;;;;;;;4846570;29;20789;-87
2022/02/27 05:55:41;;;;;;;12.75;6.32;;;;;;;;;;4829212;29;20050;-86
2022/02/27 05:58:09;;;;;;;10.23;6.30;;;;;;;;;;4843815;29;20049;-86
2022/02/27 06:00:37;;;;;;;6.30;5.00;;;;;;;;;;4844269;29;20052;-87
2022/02/27 06:03:06;;;;;;;2.40;2.30;;;;;;;;;;4846110;29;20404;-87
2022/02/27 06:05:35;;;;;;;5.78;5.15;;;;;;;;;;4844208;29;20057;-87
2022/02/27 06:08:07;;;;;;;13.10;6.65;;;;;;;;;;4843526;29;20049;-87
2022/02/27 06:10:35;;;;;;;8.27;7.30;;;;;;;;;;4846000;29;20515;-87
2022/02/27 06:13:05;;;;;;;10.65;6.97;;;;;;;;;;4849149;29;20061;-87
2022/02/27 06:15:33;;;;;;;12.85;6.13;;;;;;;;;;4849648;29;20049;-87
2022/02/27 06:18:01;;;;;;;9.70;6.50;;;;;;;;;;4847775;29;20049;-87
2022/02/27 06:20:29;;;;;;;8.13;5.82;;;;;;;;;;4847829;29;20512;-87
2022/02/27 06:22:59;;;;;;;17.85;7.15;;;;;;;;;;4848481;29;20048;-87
2022/02/27 06:25:27;;;;;;;4.50;4.20;;;;;;;;;;4829443;29;20053;-86
2022/02/27 06:27:55;;;;;;;9.63;7.47;;;;;;;;;;4831297;29;20057;-87
2022/02/27 06:30:24;;;;;;;5.68;5.18;;;;;;;;;;4849353;29;20677;-87
2022/02/27 06:32:53;;;;;;;7.97;5.90;;;;;;;;;;4827550;29;20053;-86
2022/02/27 06:35:22;;;;;;;11.60;7.13;;;;;;;;;;4825159;29;20065;-87
2022/02/27 06:37:52;;;;;;;4.90;4.47;;;;;;;;;;4849099;29;20049;-87
2022/02/27 06:40:21;;;;;;;8.68;7.45;;;;;;;;;;4846542;29;20049;-88
2022/02/27 06:42:49;;;;;;;4.18;2.92;;;;;;;;;;4845854;29;20058;-88
2022/02/27 06:45:18;;;;;;;10.73;5.72;;;;;;;;;;4832767;29;20049;-87
2022/02/27 06:47:46;;;;;;;8.07;6.97;;;;;;;;;;4846722;29;20065;-87
2022/02/27 06:50:14;;;;;;;12.20;5.57;;;;;;;;;;4849124;29;20140;-87
2022/02/27 06:52:42;;;;;;;7.28;5.60;;;;;;;;;;4848740;29;20073;-87
2022/02/27 06:55:15;;;;;;;14.02;9.68;;;;;;;;;;4848916;29;20038;-88
2022/02/27 06:57:44;;;;;;;9.43;4.97;;;;;;;;;;4848162;29;20061;-88
2022/02/27 07:00:12;;;;;;;9.85;7.93;;;;;;;;;;4831172;29;20052;-87
2022/02/27 07:02:41;;;;;;;10.93;5.85;;;;;;;;;;4848026;29;20413;-88
2022/02/27 07:05:09;;;;;;;11.93;6.70;;;;;;;;;;4848469;29;20060;-87
2022/02/27 07:07:37;;;;;;;6.60;5.82;;;;;;;;;;4850208;29;20448;-89
2022/02/27 07:10:06;;;;;;;10.18;9.00;;;;;;;;;;4848922;29;20061;-88
2022/02/27 07:12:35;;;;;;;9.82;7.18;;;;;;;;;;4847156;29;20050;-87
2022/02/27 07:15:04;;;;;;;11.52;5.70;;;;;;;;;;4847063;29;20058;-88
2022/02/27 07:17:32;;;;;;;4.75;4.32;;;;;;;;;;4846386;29;20400;-89
2022/02/27 07:20:00;;;;;;;19.92;8.50;;;;;;;;;;4814825;29;20046;-89
2022/02/27 07:22:28;;;;;;;16.77;6.93;;;;;;;;;;4843732;29;20053;-88
2022/02/27 07:24:58;;;;;;;10.73;7.53;;;;;;;;;;4847354;29;20045;-87
2022/02/27 07:27:26;;;;;;;6.22;5.07;;;;;;;;;;4829442;29;20503;-87
2022/02/27 07:29:54;;;;;;;15.13;8.45;;;;;;;;;;4848859;29;20057;-88
2022/02/27 07:32:22;;;;;;;9.60;5.55;;;;;;;;;;4829068;29;20053;-87
2022/02/27 07:34:50;;;;;;;12.65;8.93;;;;;;;;;;4846002;29;20473;-87
2022/02/27 07:37:19;;;;;;;9.50;5.40;;;;;;;;;;4846346;29;20061;-88
2022/02/27 07:39:47;;;;;;;7.70;6.10;;;;;;;;;;4814845;29;20046;-88
2022/02/27 07:42:15;;;;;;;5.30;4.88;;;;;;;;;;4847266;29;20061;-87
2022/02/27 07:44:44;;;;;;;6.35;5.78;;;;;;;;;;4847670;29;20879;-86
2022/02/27 07:47:13;;;;;;;8.13;5.70;;;;;;;;;;4846008;29;20690;-87
2022/02/27 07:49:41;;;;;;;8.95;5.90;;;;;;;;;;4846915;29;20512;-86
2022/02/27 07:52:09;;;;;;;9.52;6.15;;;;;;;;;;4842527;29;20049;-87
2022/02/27 07:54:37;;;;;;;11.00;9.57;;;;;;;;;;4831150;29;20520;-86
2022/02/27 07:57:05;;;;;;;6.63;6.13;;;;;;;;;;4847029;29;20064;-87
2022/02/27 07:59:33;;;;;;;10.57;9.60;;;;;;;;;;4845215;29;20080;-86
2022/02/27 08:02:00;;;;;;;6.20;5.47;;;;;;;;;;4845763;29;20053;-83
2022/02/27 08:04:29;;;;;;;9.73;5.80;;;;;;;;;;4828790;29;20049;-86
2022/02/27 08:06:59;;;;;;;7.90;6.95;;;;;;;;;;4847146;29;20038;-84
2022/02/27 08:09:27;;;;;;;5.53;4.60;;;;;;;;;;4829828;29;20045;-84
2022/02/27 08:11:55;;;;;;;8.13;6.28;;;;;;;;;;4845198;29;20053;-85
2022/02/27 08:14:27;;;;;;;11.63;5.43;;;;;;;;;;4847209;29;20057;-85
2022/02/27 08:16:55;;;;;;;8.30;7.50;;;;;;;;;;4828927;29;20128;-86
2022/02/27 08:19:23;;;;;;;9.23;7.82;;;;;;;;;;4844996;29;20058;-85
2022/02/27 08:21:51;;;;;;;8.60;5.03;;;;;;;;;;4855094;29;20041;-86
2022/02/27 08:24:19;;;;;;;8.50;6.57;;;;;;;;;;4828058;29;20045;-83
2022/02/27 08:26:47;;;;;;;13.15;9.27;;;;;;;;;;4846699;29;20060;-82
2022/02/27 08:29:15;;;;;;;7.18;5.53;;;;;;;;;;4844651;29;20084;-86
2022/02/27 08:31:45;;;;;;;7.90;5.50;;;;;;;;;;4827711;29;20057;-85
2022/02/27 08:34:13;;;;;;;4.10;3.80;;;;;;;;;;4847316;29;20065;-84
2022/02/27 08:36:41;;;;;;;7.97;5.55;;;;;;;;;;4844756;29;20080;-85
2022/02/27 08:39:09;;;;;;;9.73;8.70;;;;;;;;;;4846362;29;20049;-83
2022/02/27 08:41:39;;;;;;;11.57;8.00;;;;;;;;;;4844648;29;20050;-81
2022/02/27 08:44:07;;;;;;;4.30;3.85;;;;;;;;;;4847032;29;20050;-86
2022/02/27 08:46:35;;;;;;;6.47;5.88;;;;;;;;;;4845434;29;20046;-85
2022/02/27 08:49:06;;;;;;;7.80;6.50;;;;;;;;;;4844394;29;20400;-83
2022/02/27 08:51:34;;;;;;;9.95;6.38;;;;;;;;;;4846484;29;20057;-84
2022/02/27 08:54:02;;;;;;;17.33;6.57;;;;;;;;;;4829823;29;20060;-86
2022/02/27 08:56:30;;;;;;;6.68;3.97;;;;;;;;;;4843165;29;20053;-85
2022/02/27 08:58:58;;;;;;;5.35;4.85;;;;;;;;;;4848906;29;20073;-87
2022/02/27 09:01:26;;;;;;;6.80;4.28;;;;;;;;;;4844015;29;20423;-83
2022/02/27 09:03:54;;;;;;;5.32;4.40;;;;;;;;;;4831053;29;20056;-88
2022/02/27 09:06:22;;;;;;;5.68;2.97;;;;;;;;;;4828017;29;20468;-85
2022/02/27 09:08:50;;;;;;;5.65;5.15;;;;;;;;;;4849057;29;20052;-88
2022/02/27 09:11:18;;;;;;;11.05;9.50;;;;;;;;;;4813396;29;20046;-82
2022/02/27 09:13:47;;;;;;;9.25;5.25;;;;;;;;;;4829847;29;20052;-86
2022/02/27 09:16:16;;;;;;;4.68;4.28;;;;;;;;;;4831528;29;20526;-81
2022/02/27 09:18:44;;;;;;;8.82;5.50;;;;;;;;;;4842660;29;20384;-81
2022/02/27 09:21:12;;;;;;;5.03;4.53;;;;;;;;;;4845307;29;20050;-80
2022/02/27 09:23:40;;;;;;;17.02;6.50;;;;;;;;;;4843444;29;20061;-89
2022/02/27 09:26:08;;;;;;;4.88;4.40;;;;;;;;;;4829789;29;20061;-85
2022/02/27 09:29:11;;;;;;;4.50;4.10;;;;;;;;;;4817275;29;20448;-88
2022/02/27 09:31:39;;;;;;;7.60;5.38;;;;;;;;;;4842281;29;20046;-89
2022/02/27 09:34:08;;;;;;;12.00;10.93;;;;;;;;;;4827463;29;20045;-85
2022/02/27 09:36:36;;;;;;;12.60;5.85;;;;;;;;;;4828778;29;20077;-83
2022/02/27 09:39:05;;;;;;;11.75;6.70;;;;;;;;;;4825122;29;20101;-85
2022/02/27 09:41:33;;;;;;;8.50;7.75;;;;;;;;;;4827744;29;20049;-88
2022/02/27 09:44:03;;;;;;;6.22;4.95;;;;;;;;;;4844650;29;20057;-83
2022/02/27 09:46:33;;;;;;;10.10;5.23;;;;;;;;;;4848694;29;20049;-91
2022/02/27 09:49:06;;;;;;;5.63;3.08;;;;;;;;;;4849168;29;20038;-88
2022/02/27 09:51:34;;;;;;;9.35;5.75;;;;;;;;;;4848082;29;20053;-88
2022/02/27 09:54:03;;;;;;;7.50;5.57;;;;;;;;;;4852638;29;20045;-90
2022/02/27 09:56:31;;;;;;;17.70;14.45;;;;;;;;;;4846832;29;20050;-82
2022/02/27 09:58:59;;;;;;;12.45;6.50;;;;;;;;;;4847996;29;20049;-84
2022/02/27 10:01:27;;;;;;;8.07;5.93;;;;;;;;;;4849338;29;20045;-86
2022/02/27 10:03:57;;;;;;;8.00;7.22;;;;;;;;;;4832420;29;20061;-85
2022/02/27 10:06:25;;;;;;;9.20;4.93;;;;;;;;;;4833038;29;20057;-86
2022/02/27 10:08:57;;;;;;;13.43;11.93;;;;;;;;;;4832714;29;20057;-84
2022/02/27 10:11:25;;;;;;;10.80;7.18;;;;;;;;;;4824976;29;20069;-84
2022/02/27 10:13:55;;;;;;;5.25;4.85;;;;;;;;;;4858601;29;20057;-86
2022/02/27 10:16:27;;;;;;;7.68;6.38;;;;;;;;;;4831356;29;20053;-86
2022/02/27 10:18:58;;;;;;;7.70;5.57;;;;;;;;;;4852703;29;20053;-85
2022/02/27 10:21:27;;;;;;;7.87;6.50;;;;;;;;;;4833227;29;20531;-85
2022/02/27 10:24:17;;;;;;;9.73;7.55;;;;;;;;;;4832956;29;20287;-85
2022/02/27 10:26:47;;;;;;;7.07;6.50;;;;;;;;;;4830391;29;20050;-83
2022/02/27 10:29:16;;;;;;;9.88;7.07;;;;;;;;;;4845111;29;20080;-84
2022/02/27 10:31:47;;;;;;;7.88;7.00;;;;;;;;;;4843702;29;20624;-87
2022/02/27 10:34:18;;;;;;;7.57;5.90;;;;;;;;;;4829063;29;20053;-89
2022/02/27 10:37:10;;;;;;;9.30;4.22;;;;;;;;;;4820229;29;20053;-86
2022/02/27 10:40:10;;;;;;;10.25;7.53;;;;;;;;;;4811913;29;20054;-86
2022/02/27 10:42:38;;;;;;;8.70;7.07;;;;;;;;;;4848459;29;20049;-86
2022/02/27 10:45:08;;;;;;;8.10;7.10;;;;;;;;;;4849791;29;20060;-87
2022/02/27 10:47:37;;;;;;;6.75;4.38;;;;;;;;;;4848195;29;20037;-86
2022/02/27 10:50:16;;;;;;;7.05;5.65;;;;;;;;;;4814393;29;20062;-88
2022/02/27 10:52:48;;;;;;;4.68;4.25;;;;;;;;;;4818104;29;20251;-88
2022/02/27 10:55:16;;;;;;;5.75;5.13;;;;;;;;;;4847163;29;20046;-86
2022/02/27 10:57:45;;;;;;;9.70;7.80;;;;;;;;;;4845058;29;20054;-86
2022/02/27 11:00:15;;;;;;;6.25;4.90;;;;;;;;;;4831860;29;20057;-83
2022/02/27 11:02:46;;;;;;;7.75;5.90;;;;;;;;;;4847715;29;20084;-80
2022/02/27 11:05:19;;;;;;;10.30;8.75;;;;;;;;;;4849251;29;20052;-88
2022/02/27 11:07:55;;;;;;;8.02;4.97;;;;;;;;;;4830999;29;20049;-89
2022/02/27 11:10:24;;;;;;;6.25;4.30;;;;;;;;;;4810532;29;20060;-84
2022/02/27 11:12:52;;;;;;;6.60;4.78;;;;;;;;;;4844065;29;20057;-87
2022/02/27 11:15:23;;;;;;;11.35;6.53;;;;;;;;;;4847786;29;20049;-86
2022/02/27 11:17:51;;;;;;;9.53;5.77;;;;;;;;;;4829791;29;20594;-85
2022/02/27 11:20:20;;;;;;;8.00;7.22;;;;;;;;;;4835203;29;20041;-84
2022/02/27 11:22:49;;;;;;;7.70;7.03;;;;;;;;;;4832075;29;20046;-83
2022/02/27 11:25:18;;;;;;;5.07;4.45;;;;;;;;;;4845404;29;20037;-89
2022/02/27 11:27:46;;;;;;;7.18;6.47;;;;;;;;;;4831239;29;20060;-85
2022/02/27 11:30:26;;;;;;;10.27;7.45;;;;;;;;;;4851096;29;20058;-87
2022/02/27 11:32:55;;;;;;;10.75;5.00;;;;;;;;;;4835608;29;20049;-90
2022/02/27 11:35:37;;;;;;;7.70;4.70;;;;;;;;;;4831596;29;20049;-90
2022/02/27 11:38:42;;;;;;;9.50;6.28;;;;;;;;;;4840735;29;20045;-90
2022/02/27 11:41:12;;;;;;;5.90;4.95;;;;;;;;;;4828992;29;20041;-88
2022/02/27 11:43:42;;;;;;;5.93;4.18;;;;;;;;;;4818006;29;20076;-90
2022/02/27 11:46:11;;;;;;;10.35;7.57;;;;;;;;;;4850810;29;20057;-85
2022/02/27 11:48:56;;;;;;;6.18;5.50;;;;;;;;;;4829825;29;20052;-85
2022/02/27 11:51:42;;;;;;;7.00;5.05;;;;;;;;;;4847514;29;20045;-88
2022/02/27 11:54:11;;;;;;;12.10;8.65;;;;;;;;;;4816552;29;20567;-84
2022/02/27 11:56:41;;;;;;;3.70;3.40;;;;;;;;;;4829506;29;20041;-86
2022/02/27 11:59:10;;;;;;;5.03;3.60;;;;;;;;;;4815255;29;20058;-85
2022/02/27 12:01:38;;;;;;;5.90;5.07;;;;;;;;;;4848150;29;20048;-78
2022/02/27 12:04:28;;;;;;;6.57;5.88;;;;;;;;;;4843898;29;20717;-89
2022/02/27 12:07:06;;;;;;;3.83;3.47;;;;;;;;;;4837484;29;20056;-88
2022/02/27 12:09:49;;;;;;;6.70;5.97;;;;;;;;;;4828788;29;20049;-90
2022/02/27 12:12:38;;;;;;;7.55;5.40;;;;;;;;;;4830677;29;20527;-89
2022/02/27 12:15:17;;;;;;;5.03;4.35;;;;;;;;;;4845656;29;20633;-89
2022/02/27 12:17:49;;;;;;;;;;;;;;;;;;4813921;29;20046;-87
2022/02/27 12:20:37;;;;;;;4.47;4.07;;;;;;;;;;4829545;29;19951;-87
2022/02/27 12:23:08;;;;;;;6.75;4.70;;;;;;;;;;4838485;29;20057;-89
2022/02/27 12:25:37;;;;;;;7.63;6.70;;;;;;;;;;4836316;29;20048;-87
2022/02/27 12:28:10;;;;;;;12.93;6.13;;;;;;;;;;4834719;29;20052;-88
2022/02/27 12:30:41;;;;;;;13.43;10.00;;;;;;;;;;4836833;29;20042;-88
2022/02/27 12:33:10;;;;;;;16.75;6.18;;;;;;;;;;4848136;29;20046;-91
2022/02/27 12:35:40;;;;;;;10.93;9.48;;;;;;;;;;4814450;29;20061;-87
2022/02/27 12:38:13;;;;;;;10.35;6.78;;;;;;;;;;4831971;29;20046;-90
2022/02/27 12:40:42;;;;;;;7.90;7.10;;;;;;;;;;4846220;29;20500;-89
2022/02/27 12:43:13;;;;;;;7.88;6.57;;;;;;;;;;4833518;29;20057;-90
2022/02/27 12:45:43;;;;;;;14.15;5.38;;;;;;;;;;4848659;29;20515;-89
2022/02/27 12:48:13;;;;;;;7.10;6.35;;;;;;;;;;4852152;29;20064;-91
2022/02/27 12:50:45;;;;;;;6.90;6.25;;;;;;;;;;4846768;29;20049;-84
2022/02/27 12:53:14;;;;;;;17.42;6.90;;;;;;;;;;4838834;29;20042;-86
2022/02/27 12:55:43;;;;;;;9.38;8.50;;;;;;;;;;4844993;29;20703;-81
2022/02/27 12:58:15;;;;;;;8.60;7.78;;;;;;;;;;4851709;29;20053;-88
2022/02/27 13:00:46;;;;;;;7.60;6.57;;;;;;;;;;4848732;29;20037;-90
2022/02/27 13:03:15;;;;;;;6.55;4.63;;;;;;;;;;4824532;29;20050;-86
2022/02/27 13:05:43;;;;;;;10.43;7.53;;;;;;;;;;4818407;29;20042;-82
2022/02/27 13:08:12;;;;;;;7.07;6.38;;;;;;;;;;4833241;29;20061;-86
2022/02/27 13:10:42;;;;;;;6.53;5.65;;;;;;;;;;4850170;29;20052;-88
2022/02/27 13:13:15;;;;;;;10.33;9.37;;;;;;;;;;4818512;29;20053;-84
2022/02/27 13:15:56;;;;;;;7.60;5.28;;;;;;;;;;4817578;29;20462;-86
2022/02/27 13:18:25;;;;;;;9.93;4.93;;;;;;;;;;4817060;29;20504;-85
2022/02/27 13:20:58;;;;;;;9.20;8.35;;;;;;;;;;4825389;29;20049;-84
2022/02/27 13:23:29;;;;;;;8.65;5.03;;;;;;;;;;4806774;29;20524;-90
2022/02/27 13:26:04;;;;;;;3.85;3.55;;;;;;;;;;4844348;29;20046;-89
2022/02/27 13:28:35;;;;;;;6.72;4.28;;;;;;;;;;4815375;29;20048;-86
2022/02/27 13:31:16;;;;;;;8.73;7.15;;;;;;;;;;4850495;29;20052;-86
2022/02/27 13:33:45;;;;;;;9.55;4.35;;;;;;;;;;4826887;29;20046;-89
2022/02/27 13:36:14;;;;;;;6.05;5.15;;;;;;;;;;4845117;29;20054;-87
2022/02/27 13:38:51;;;;;;;11.73;8.23;;;;;;;;;;4813771;29;20400;-88
2022/02/27 13:41:33;;;;;;;8.60;6.40;;;;;;;;;;4827160;29;20058;-88
2022/02/27 13:44:02;;;;;;;10.52;5.80;;;;;;;;;;4814430;29;20073;-85
2022/02/27 13:46:31;;;;;;;3.97;3.10;;;;;;;;;;4830440;29;20813;-86
2022/02/27 13:49:04;;;;;;;5.95;4.88;;;;;;;;;;4815822;29;20496;-87
2022/02/27 13:51:32;;;;;;;7.85;5.72;;;;;;;;;;4814533;29;20048;-86
2022/02/27 13:54:19;;;;;;;8.82;5.40;;;;;;;;;;4830372;29;20050;-86
2022/02/27 13:57:01;;;;;;;10.15;7.85;;;;;;;;;;4829001;29;20616;-83
2022/02/27 14:00:01;;;;;;;6.53;5.38;;;;;;;;;;4831809;29;20507;-84
2022/02/27 14:02:43;;;;;;;5.15;4.53;;;;;;;;;;4812904;29;20053;-87
2022/02/27 14:05:11;;;;;;;5.97;5.40;;;;;;;;;;4813366;29;20049;-85
2022/02/27 14:07:41;;;;;;;4.47;4.07;;;;;;;;;;4804754;29;20529;-84
2022/02/27 14:10:11;;;;;;;4.88;4.47;;;;;;;;;;4812011;29;20050;-85
2022/02/27 14:12:56;;;;;;;11.20;6.20;;;;;;;;;;4814123;29;20084;-84
2022/02/27 14:15:29;;;;;;;7.00;5.70;;;;;;;;;;4860551;29;20064;-86
2022/02/27 14:17:57;;;;;;;13.32;9.30;;;;;;;;;;4823010;29;20049;-88
2022/02/27 14:20:30;;;;;;;7.53;5.20;;;;;;;;;;4828585;29;20050;-85
2022/02/27 14:23:08;;;;;;;8.48;6.50;;;;;;;;;;4814337;29;20079;-84
2022/02/27 14:25:40;;;;;;;5.97;4.57;;;;;;;;;;4828842;29;20049;-84
2022/02/27 14:28:09;;;;;;;5.65;5.05;;;;;;;;;;4844617;29;20046;-85
2022/02/27 14:30:39;;;;;;;9.30;6.20;;;;;;;;;;4846652;29;20054;-86
2022/02/27 14:33:08;;;;;;;19.20;6.43;;;;;;;;;;4846361;29;20057;-84
2022/02/27 14:35:37;;;;;;;7.13;5.28;;;;;;;;;;4834020;29;20075;-82
2022/02/27 14:38:09;;;;;;;9.50;5.78;;;;;;;;;;4847691;29;20601;-85
2022/02/27 14:40:37;;;;;;;7.45;4.60;;;;;;;;;;4831354;29;20049;-85
2022/02/27 14:43:08;;;;;;;5.50;5.07;;;;;;;;;;4816378;29;20064;-85
2022/02/27 14:45:36;;;;;;;8.18;5.82;;;;;;;;;;4829221;29;20045;-86
2022/02/27 14:48:11;;;;;;;7.43;4.93;;;;;;;;;;4830754;29;20167;-85
2022/02/27 14:50:45;;;;;;;5.93;5.35;;;;;;;;;;4819783;29;20054;-84
2022/02/27 14:53:13;;;;;;;5.53;5.03;;;;;;;;;;4816678;29;20798;-85
2022/02/27 14:55:42;;;;;;;8.95;8.05;;;;;;;;;;4827317;29;20069;-83
2022/02/27 14:58:10;;;;;;;5.68;5.25;;;;;;;;;;4829664;29;20504;-85
2022/02/27 15:00:45;;;;;;;6.10;5.13;;;;;;;;;;4830730;29;20042;-87
2022/02/27 15:03:18;;;;;;;8.13;5.75;;;;;;;;;;4816329;29;20061;-87